LICT/TPS METAR and TAF weather

Enter ICAO airport designator
Station Type Date Time Source
LICT METAR 2019/10/14 05:55 UTC NOAA

LICT 140555Z 11002KT 9999 FEW025 18/15 Q1021


Station Type Date Time Source
LICT Decoded METAR 2019/10/14 05:55 UTC NOAA

Trapani / Birgi, Italy (LICT) 37-55N 012-30E 14M
Oct 14, 2019 - 01:55 AM EDT / 2019.10.14 0555 UTC
Wind: from the ESE (110 degrees) at 2 MPH (2 KT):0
Visibility: greater than 7 mile(s):0
Sky conditions: mostly clear
Temperature: 64 F (18 C)
Dew Point: 59 F (15 C)
Relative Humidity: 82%
Pressure (altimeter): 30.15 in. Hg (1021 hPa)
ob: LICT 140555Z 11002KT 9999 FEW025 18/15 Q1021
cycle: 6

Station Type Date Time Source
LICT TAF 2019/01/11 09:24 UTC NOAA

TAF TAF LICT 110800Z 1109/1121 33012KT 9999 SCT025

Example: see airport list